createdAt,value
2023-02-05T00:03:51.869Z,-0.78
2023-02-05T00:08:54.794Z,-1.02
2023-02-05T00:13:57.777Z,-1.07
2023-02-05T00:19:02.183Z,-1.23
2023-02-05T00:24:05.417Z,-1.33
2023-02-05T00:29:08.375Z,-1.18
2023-02-05T00:34:12.609Z,-1.39
2023-02-05T00:39:16.063Z,-1.38
2023-02-05T00:44:19.011Z,-1.45
2023-02-05T00:49:23.352Z,-1.48
2023-02-05T00:54:26.389Z,-1.57
2023-02-05T00:59:29.286Z,-1.69
2023-02-05T01:04:33.568Z,-1.94
2023-02-05T01:09:36.477Z,-1.92
2023-02-05T01:14:39.490Z,-2.06
2023-02-05T01:19:43.928Z,-2.03
2023-02-05T01:24:46.959Z,-2.14
2023-02-05T01:29:49.875Z,-2.45
2023-02-05T01:34:54.170Z,-2.35
2023-02-05T01:39:57.133Z,-2.47
2023-02-05T01:45:37.162Z,-2.51
2023-02-05T01:50:45.568Z,-2.47
2023-02-05T01:55:54.138Z,-2.58
2023-02-05T02:00:58.782Z,-2.52
2023-02-05T02:06:04.784Z,-2.63
2023-02-05T02:11:11.132Z,-2.70
2023-02-05T02:16:14.941Z,-2.80
2023-02-05T02:21:43.756Z,-2.82
2023-02-05T02:27:01.116Z,-3.06
2023-02-05T02:32:15.581Z,-2.95
2023-02-05T02:37:26.177Z,-3.01
2023-02-05T02:42:34.596Z,-3.19
2023-02-05T02:47:45.537Z,-3.12
2023-02-05T02:52:49.602Z,-3.28
2023-02-05T02:57:54.813Z,-3.02
2023-02-05T03:03:06.268Z,-3.04
2023-02-05T03:08:14.602Z,-3.30
2023-02-05T03:13:19.580Z,-3.38
2023-02-05T03:18:31.341Z,-3.56
2023-02-05T03:23:34.331Z,-3.58
2023-02-05T03:28:37.357Z,-3.64
2023-02-05T03:33:54.296Z,-3.83
2023-02-05T03:39:10.722Z,-3.69
2023-02-05T03:44:25.255Z,-4.06
2023-02-05T03:49:38.446Z,-3.83
2023-02-05T03:54:47.640Z,-3.92
2023-02-05T03:59:58.082Z,-4.00
2023-02-05T04:05:03.979Z,-4.09
2023-02-05T04:10:07.833Z,-4.19
2023-02-05T04:15:12.325Z,-4.02
2023-02-05T04:20:22.097Z,-4.09
2023-02-05T04:25:25.139Z,-4.20
2023-02-05T04:30:30.294Z,-4.19
2023-02-05T04:35:35.043Z,-4.13
2023-02-05T04:40:41.008Z,-4.38
2023-02-05T04:45:43.947Z,-4.57
2023-02-05T04:50:48.740Z,-4.52
2023-02-05T04:55:51.724Z,-4.47
2023-02-05T05:00:54.670Z,-4.61
2023-02-05T05:06:04.606Z,-4.47
2023-02-05T05:11:08.805Z,-4.60
2023-02-05T05:16:12.597Z,-4.59
2023-02-05T05:21:16.949Z,-4.43
2023-02-05T05:26:19.828Z,-4.87
2023-02-05T05:31:22.824Z,-4.42
2023-02-05T05:36:27.145Z,-4.17
2023-02-05T05:41:47.528Z,-4.13
2023-02-05T05:46:50.529Z,-4.19
2023-02-05T05:51:54.732Z,-4.19
2023-02-05T05:56:57.645Z,-4.20
2023-02-05T06:02:02.477Z,-3.96
2023-02-05T06:07:06.840Z,-4.05
2023-02-05T06:12:11.673Z,-4.02
2023-02-05T06:17:14.749Z,-4.07
2023-02-05T06:22:19.023Z,-4.28
2023-02-05T06:27:21.922Z,-4.01
2023-02-05T06:32:26.804Z,-4.02
2023-02-05T06:37:46.323Z,-3.97
2023-02-05T06:42:50.231Z,-3.88
2023-02-05T06:47:55.925Z,-3.91
2023-02-05T06:53:00.285Z,-3.81
2023-02-05T06:58:03.138Z,-3.99
2023-02-05T07:03:06.108Z,-4.13
2023-02-05T07:08:10.392Z,-3.96
2023-02-05T07:13:13.307Z,-3.64
2023-02-05T07:18:16.377Z,-3.73
2023-02-05T07:23:20.619Z,-3.32
2023-02-05T07:28:23.544Z,-3.33
2023-02-05T07:33:26.441Z,-2.94
2023-02-05T07:38:30.723Z,-2.94
2023-02-05T07:43:33.663Z,-2.52
2023-02-05T07:48:37.140Z,-2.32
2023-02-05T07:53:41.392Z,-2.11
2023-02-05T07:58:44.728Z,-2.23
2023-02-05T08:03:47.622Z,-2.76
2023-02-05T08:08:51.886Z,-2.87
2023-02-05T08:13:54.811Z,-2.74
2023-02-05T08:18:57.664Z,-2.11
2023-02-05T08:24:02.188Z,-1.72
2023-02-05T08:29:05.216Z,-1.56
2023-02-05T08:34:08.177Z,-1.30
2023-02-05T08:39:12.470Z,-1.11
2023-02-05T08:44:15.464Z,-1.72
2023-02-05T08:49:18.573Z,-1.54
2023-02-05T08:54:22.974Z,-1.15
2023-02-05T08:59:25.939Z,-0.76
2023-02-05T09:04:29.306Z,-0.67
2023-02-05T09:09:34.972Z,-0.77
2023-02-05T09:14:38.122Z,-0.98
2023-02-05T09:19:42.548Z,-0.18
2023-02-05T09:24:46.904Z,-0.62
2023-02-05T09:29:49.782Z,0.12
2023-02-05T09:34:52.694Z,0.79
2023-02-05T09:45:37.313Z,0.77
2023-02-05T09:50:42.541Z,0.92
2023-02-05T09:55:48.270Z,0.63
2023-02-05T10:00:54.810Z,0.14
2023-02-05T10:06:14.085Z,-0.29
2023-02-05T10:11:27.905Z,-0.36
2023-02-05T10:17:09.149Z,-0.25
2023-02-05T10:22:19.515Z,-0.31
2023-02-05T10:27:25.804Z,-0.04
2023-02-05T10:32:40.055Z,-0.33
2023-02-05T10:37:47.926Z,0.11
2023-02-05T10:42:56.028Z,0.09
2023-02-05T10:48:23.349Z,0.25
2023-02-05T10:53:27.908Z,0.28
2023-02-05T10:58:47.733Z,0.53
2023-02-05T11:03:55.934Z,0.27
2023-02-05T11:08:59.084Z,0.52
2023-02-05T11:14:07.166Z,0.17
2023-02-05T11:19:21.423Z,0.52
2023-02-05T11:24:29.004Z,0.44
2023-02-05T11:29:33.264Z,0.69
2023-02-05T11:34:36.215Z,0.91
2023-02-05T11:39:41.399Z,0.75
2023-02-05T11:44:51.149Z,0.85
2023-02-05T11:49:55.135Z,0.77
2023-02-05T11:54:58.148Z,1.25
2023-02-05T12:00:19.339Z,1.47
2023-02-05T12:05:27.223Z,1.46
2023-02-05T12:10:38.820Z,1.46
2023-02-05T12:15:48.869Z,1.53
2023-02-05T12:21:05.976Z,1.85
2023-02-05T12:26:27.422Z,1.87
2023-02-05T12:31:47.069Z,1.32
2023-02-05T12:37:05.299Z,1.68
2023-02-05T12:42:22.749Z,1.69
2023-02-05T12:47:45.347Z,1.48
2023-02-05T12:53:13.635Z,1.78
2023-02-05T12:58:18.542Z,1.76
2023-02-05T13:03:29.647Z,1.58
2023-02-05T13:08:42.772Z,1.64
2023-02-05T13:13:53.109Z,1.51
2023-02-05T13:19:03.209Z,1.43
2023-02-05T13:24:40.786Z,1.61
2023-02-05T13:29:51.385Z,1.56
2023-02-05T13:34:58.633Z,1.59
2023-02-05T13:40:40.157Z,1.45
2023-02-05T13:46:20.806Z,1.47
2023-02-05T13:51:40.118Z,1.50
2023-02-05T13:56:49.533Z,1.42
2023-02-05T14:01:57.901Z,1.06
2023-02-05T14:07:05.345Z,1.13
2023-02-05T14:12:11.305Z,1.30
2023-02-05T14:17:47.199Z,1.12
2023-02-05T14:22:52.620Z,1.29
2023-02-05T14:27:56.875Z,1.02
2023-02-05T14:33:01.112Z,1.03
2023-02-05T14:38:17.341Z,1.04
2023-02-05T14:43:28.435Z,1.06
2023-02-05T14:48:34.314Z,1.08
2023-02-05T14:53:39.879Z,1.07
2023-02-05T14:58:45.209Z,1.02
2023-02-05T15:03:48.322Z,0.94
2023-02-05T15:09:00.618Z,0.94
2023-02-05T15:14:44.381Z,0.82
2023-02-05T15:19:52.705Z,0.82
2023-02-05T15:24:58.158Z,0.73
2023-02-05T15:30:09.163Z,0.72
2023-02-05T15:35:17.444Z,0.51
2023-02-05T15:40:25.964Z,0.24
2023-02-05T15:45:31.914Z,0.34
2023-02-05T15:50:37.122Z,0.18
2023-02-05T15:55:41.426Z,-0.01
2023-02-05T16:00:47.823Z,-0.08
2023-02-05T16:05:53.142Z,-0.12
2023-02-05T16:11:01.915Z,-0.20
2023-02-05T16:16:09.576Z,-0.32
2023-02-05T16:21:18.695Z,-0.48
2023-02-05T16:26:27.825Z,-0.56
2023-02-05T16:31:33.574Z,-0.46
2023-02-05T16:36:40.052Z,-0.53
2023-02-05T16:41:45.183Z,-0.80
2023-02-05T16:47:06.682Z,-0.79
2023-02-05T16:52:31.864Z,-0.71
2023-02-05T16:57:39.846Z,-0.76
2023-02-05T17:02:43.209Z,-1.00
2023-02-05T17:07:55.461Z,-0.99
2023-02-05T17:13:04.862Z,-1.21
2023-02-05T17:18:26.565Z,-1.19
2023-02-05T17:23:29.449Z,-1.43
2023-02-05T17:28:38.096Z,-1.49
2023-02-05T17:33:41.057Z,-1.29
2023-02-05T17:38:44.059Z,-1.61
2023-02-05T17:43:48.412Z,-1.75
2023-02-05T17:48:51.346Z,-1.66
2023-02-05T17:53:54.629Z,-1.49
2023-02-05T17:58:59.896Z,-1.49
2023-02-05T18:04:02.915Z,-1.52
2023-02-05T18:09:06.267Z,-1.53
2023-02-05T18:14:12.590Z,-1.49
2023-02-05T18:19:15.801Z,-1.66
2023-02-05T18:24:18.725Z,-1.81
2023-02-05T18:29:23.198Z,-1.73
2023-02-05T18:34:27.706Z,-1.79
2023-02-05T18:39:30.629Z,-1.94
2023-02-05T18:44:35.177Z,-1.90
2023-02-05T18:49:38.153Z,-1.86
2023-02-05T18:54:41.355Z,-1.83
2023-02-05T18:59:48.461Z,-1.77
2023-02-05T19:04:55.733Z,-2.20
2023-02-05T19:09:59.356Z,-2.69
2023-02-05T19:15:03.684Z,-2.39
2023-02-05T19:20:07.353Z,-2.43
2023-02-05T19:25:10.248Z,-2.42
2023-02-05T19:30:15.093Z,-2.43
2023-02-05T19:35:18.276Z,-2.64
2023-02-05T19:40:21.605Z,-2.81
2023-02-05T19:45:25.848Z,-2.78
2023-02-05T19:50:28.757Z,-2.75
2023-02-05T19:55:33.049Z,-2.84
2023-02-05T20:00:37.530Z,-2.97
2023-02-05T20:05:40.485Z,-2.89
2023-02-05T20:10:43.393Z,-3.14
2023-02-05T20:15:47.794Z,-3.22
2023-02-05T20:20:50.726Z,-3.13
2023-02-05T20:25:57.537Z,-3.13
2023-02-05T20:31:19.737Z,-3.29
2023-02-05T20:36:22.807Z,-3.30
2023-02-05T20:41:26.178Z,-3.49
2023-02-05T20:46:31.130Z,-3.32
2023-02-05T20:51:34.077Z,-3.44
2023-02-05T20:56:37.308Z,-3.52
2023-02-05T21:01:41.633Z,-3.52
2023-02-05T21:06:44.588Z,-3.66
2023-02-05T21:11:47.727Z,-3.67
2023-02-05T21:16:52.098Z,-3.65
2023-02-05T21:21:54.995Z,-3.97
2023-02-05T21:26:57.987Z,-3.85
2023-02-05T21:32:02.393Z,-4.31
2023-02-05T21:37:05.306Z,-4.15
2023-02-05T21:42:08.224Z,-3.93
2023-02-05T21:47:12.506Z,-3.97
2023-02-05T21:52:15.572Z,-3.89
2023-02-05T21:57:18.607Z,-4.44
2023-02-05T22:02:22.993Z,-4.26
2023-02-05T22:07:26.073Z,-4.25
2023-02-05T22:12:28.989Z,-4.35
2023-02-05T22:17:33.272Z,-4.34
2023-02-05T22:22:36.457Z,-4.56
2023-02-05T22:27:39.384Z,-4.59
2023-02-05T22:32:43.694Z,-4.41
2023-02-05T22:37:46.576Z,-4.44
2023-02-05T22:42:49.487Z,-4.54
2023-02-05T22:47:53.759Z,-4.65
2023-02-05T22:52:56.699Z,-4.74
2023-02-05T22:57:59.618Z,-4.78
2023-02-05T23:03:03.959Z,-4.72
2023-02-05T23:08:06.976Z,-4.84
2023-02-05T23:13:09.990Z,-4.96
2023-02-05T23:18:14.305Z,-4.96
2023-02-05T23:23:17.202Z,-5.15
2023-02-05T23:28:21.858Z,-4.99
2023-02-05T23:33:26.173Z,-5.00
2023-02-05T23:38:29.133Z,-4.99
2023-02-05T23:43:33.219Z,-5.09
2023-02-05T23:48:37.504Z,-5.18
2023-02-05T23:53:40.454Z,-5.49
2023-02-05T23:58:43.339Z,-5.35
